Extreme hitte van: 10-08-2020 21:00 tot: 12-08-2020 21:00 waarschuwing voor: Extreme hitte niveau: Geel info button
De komende dagen is er sprake van aanhoudende hitte.Het Nationaal Hitteplan van het RIVM is actief.Er is sprake van aanhoudende hitte.Besteed extra zorg en aandacht aan kwetsbare mensen in uw omgeving.Met name ouderen en mensen met een chronische aandoening wordt geadviseerd maatregelen te nemen: drink voldoende, houd uzelf en uw woning koel.









webcam  webcam


webcam 2   webcam 2


Onweer radar Meer informatie blitzortung!


Regen radar Meer informatie rain snow radar


Bezoek onze andere website:

Template documentation
and downloads

And another site

weerstation wsnoordbergum

weerstationlembeke



METAR rapporten vliegvelden

   
EHAM - Amsterdam
Gewijzigd: 11-08-2020 00:55
Helder  
Helder  
   Wind: ONO 13 km/h
Wind: ONO 13 km/h
Temperatuur: 23°C
Dauwpunt: 18°C
Vochtigheid: 74%
Barometer: 1015 hPa
Zicht: meer dan 10 km
Bewolking: Helder
EHAM 102255Z 07007KT CAVOK 23/18 Q1015 NOSIG
EHRD - Rotterdam
Gewijzigd: 11-08-2020 00:55
Licht bewolkt  
Licht bewolkt  
   Wind: ONO 9.3 km/h
Wind: ONO 9.3 km/h
Temperatuur: 22°C
Dauwpunt: 18°C
Vochtigheid: 78%
Barometer: 1014 hPa
Bewolking: Licht bewolkt
Zicht: meer dan 10 km
Bewolking: Licht bewolkt 1500 ft
EHRD 102255Z AUTO 06005KT 9999 FEW015CB 22/18 Q1014 NOSIG
 

Script ontwikkeld door  Saratoga-weather.org Aangepast voor de template door  Weerstation Leuven

U vindt ons ook hier:

Het Weer Aktueel

European Weather Network

WeatherCloud

Weather Underground

AWEKAS

HAMweather, WeatherForYou, PWS Weather

Apparatuur in gebruik:

Weerstation
Davis VP2

Weerprogramma
Meteobridge

Weercomputer
Asus WL -330N3G

Webleverancier
Hostnet

Davis VP2

Meteobridge

Asus WL -330N3G

Hostnet